Time;durP1;ratioP1;P1;durP2;ratioP2;P2;SDS_P1;SDS_P2;PMS_P1;PMS_P2;Temp;Humidity;BMP_temperature;BMP_pressure;BME280_temperature;BME280_humidity;BME280_pressure;Samples;Min_cycle;Max_cycle;Signal;HPM_P1;HPM_P2
2022/07/10 00:00:41;;;;;;;2.93;1.73;;;;;;;;;;5094271;28;20497;-75
2022/07/10 00:03:10;;;;;;;4.32;1.85;;;;;;;;;;5091219;28;20436;-75
2022/07/10 00:05:37;;;;;;;4.38;2.15;;;;;;;;;;5095758;28;20438;-75
2022/07/10 00:08:04;;;;;;;4.47;2.17;;;;;;;;;;5093113;28;20866;-75
2022/07/10 00:10:33;;;;;;;4.03;1.75;;;;;;;;;;5102107;28;21118;-74
2022/07/10 00:13:00;;;;;;;3.60;2.10;;;;;;;;;;5098305;28;20428;-74
2022/07/10 00:15:27;;;;;;;3.65;1.90;;;;;;;;;;5095357;28;20423;-75
2022/07/10 00:17:54;;;;;;;3.65;2.08;;;;;;;;;;5087475;28;20428;-74
2022/07/10 00:20:23;;;;;;;4.30;2.00;;;;;;;;;;5093215;28;20793;-74
2022/07/10 00:22:50;;;;;;;2.83;1.80;;;;;;;;;;5087990;28;20422;-75
2022/07/10 00:25:17;;;;;;;4.72;2.00;;;;;;;;;;5099956;28;20483;-75
2022/07/10 00:27:44;;;;;;;4.75;1.77;;;;;;;;;;5099755;28;20458;-74
2022/07/10 00:30:12;;;;;;;5.35;1.90;;;;;;;;;;5091246;28;20513;-74
2022/07/10 00:32:39;;;;;;;3.88;1.83;;;;;;;;;;5096810;28;20597;-75
2022/07/10 00:35:06;;;;;;;3.15;1.98;;;;;;;;;;5088681;28;20444;-74
2022/07/10 00:37:36;;;;;;;3.30;1.80;;;;;;;;;;5097875;28;20540;-74
2022/07/10 00:40:04;;;;;;;4.10;1.80;;;;;;;;;;5096544;28;20433;-74
2022/07/10 00:42:31;;;;;;;3.90;2.10;;;;;;;;;;5103074;28;20500;-74
2022/07/10 00:44:58;;;;;;;3.35;1.83;;;;;;;;;;5098785;28;20499;-74
2022/07/10 00:47:25;;;;;;;4.15;2.00;;;;;;;;;;5093503;28;20424;-74
2022/07/10 00:49:52;;;;;;;3.83;1.90;;;;;;;;;;5093868;28;20948;-74
2022/07/10 00:52:20;;;;;;;4.32;1.70;;;;;;;;;;5118013;23;20930;-70
2022/07/10 00:54:51;;;;;;;4.88;1.83;;;;;;;;;;5101957;28;20423;-71
2022/07/10 00:57:18;;;;;;;3.50;2.00;;;;;;;;;;5106770;28;20435;-71
2022/07/10 00:59:46;;;;;;;3.60;2.03;;;;;;;;;;5106516;28;20424;-71
2022/07/10 01:02:13;;;;;;;3.42;1.85;;;;;;;;;;5095668;28;20441;-71
2022/07/10 01:04:40;;;;;;;4.63;1.80;;;;;;;;;;5080108;28;20436;-71
2022/07/10 01:07:07;;;;;;;4.82;2.10;;;;;;;;;;5087524;28;20975;-71
2022/07/10 01:09:34;;;;;;;3.10;1.73;;;;;;;;;;5086834;28;20430;-71
2022/07/10 01:12:03;;;;;;;5.50;2.25;;;;;;;;;;5085356;28;21054;-71
2022/07/10 01:14:31;;;;;;;4.00;2.10;;;;;;;;;;5081686;28;20421;-71
2022/07/10 01:16:58;;;;;;;5.28;1.83;;;;;;;;;;5078919;28;20844;-71
2022/07/10 01:19:25;;;;;;;3.13;1.80;;;;;;;;;;5074653;28;20433;-71
2022/07/10 01:21:53;;;;;;;3.35;1.90;;;;;;;;;;5085657;28;20423;-72
2022/07/10 01:24:20;;;;;;;3.88;2.00;;;;;;;;;;5073067;28;20893;-72
2022/07/10 01:26:48;;;;;;;2.72;1.85;;;;;;;;;;5082352;28;20429;-70
2022/07/10 01:29:15;;;;;;;4.90;1.80;;;;;;;;;;5079661;28;20510;-71
2022/07/10 01:31:42;;;;;;;3.72;2.10;;;;;;;;;;5081142;28;20454;-71
2022/07/10 01:34:10;;;;;;;5.10;2.00;;;;;;;;;;5081441;28;20426;-71
2022/07/10 01:36:37;;;;;;;3.95;1.90;;;;;;;;;;5072978;28;20434;-71
2022/07/10 01:39:06;;;;;;;2.22;1.60;;;;;;;;;;5078836;28;20482;-70
2022/07/10 01:41:33;;;;;;;4.78;1.90;;;;;;;;;;5080618;28;20438;-71
2022/07/10 01:44:00;;;;;;;5.77;2.30;;;;;;;;;;5088577;28;20429;-73
2022/07/10 01:46:28;;;;;;;3.72;1.88;;;;;;;;;;5088073;28;20791;-71
2022/07/10 01:48:55;;;;;;;3.75;1.90;;;;;;;;;;5081845;28;20433;-72
2022/07/10 01:51:22;;;;;;;5.07;2.40;;;;;;;;;;5086646;28;21019;-71
2022/07/10 01:53:50;;;;;;;4.25;2.03;;;;;;;;;;5088554;28;20928;-71
2022/07/10 01:56:18;;;;;;;3.23;1.70;;;;;;;;;;5090837;28;20774;-71
2022/07/10 01:58:45;;;;;;;4.00;2.00;;;;;;;;;;5080863;28;20438;-71
2022/07/10 02:01:13;;;;;;;5.93;1.90;;;;;;;;;;5084590;28;21057;-70
2022/07/10 02:06:25;;;;;;;3.17;1.77;;;;;;;;;;5083916;28;20491;-71
2022/07/10 02:08:52;;;;;;;3.78;1.70;;;;;;;;;;5079636;28;20431;-71
2022/07/10 02:11:21;;;;;;;4.22;1.92;;;;;;;;;;5084922;28;20433;-72
2022/07/10 02:13:48;;;;;;;2.53;1.50;;;;;;;;;;5088281;28;20422;-71
2022/07/10 02:16:15;;;;;;;5.43;1.80;;;;;;;;;;5085025;28;20456;-71
2022/07/10 02:18:42;;;;;;;3.80;1.87;;;;;;;;;;5083038;28;20417;-70
2022/07/10 02:21:09;;;;;;;5.40;2.00;;;;;;;;;;5086028;28;20449;-71
2022/07/10 02:23:39;;;;;;;4.38;1.80;;;;;;;;;;5088830;28;20433;-72
2022/07/10 02:26:06;;;;;;;3.83;1.90;;;;;;;;;;5086962;28;20429;-71
2022/07/10 02:28:34;;;;;;;4.63;1.80;;;;;;;;;;5080511;28;20437;-71
2022/07/10 02:31:01;;;;;;;3.95;1.40;;;;;;;;;;5081073;28;20456;-71
2022/07/10 02:33:29;;;;;;;3.70;1.60;;;;;;;;;;5079772;28;20418;-71
2022/07/10 02:35:56;;;;;;;2.80;1.60;;;;;;;;;;5080602;28;20842;-71
2022/07/10 02:38:23;;;;;;;2.30;1.50;;;;;;;;;;5080732;28;20432;-71
2022/07/10 02:40:50;;;;;;;3.13;1.58;;;;;;;;;;5081479;28;20471;-71
2022/07/10 02:43:17;;;;;;;3.53;1.73;;;;;;;;;;5081059;28;21205;-71
2022/07/10 02:45:46;;;;;;;6.47;2.00;;;;;;;;;;5072319;28;20925;-72
2022/07/10 02:48:13;;;;;;;3.97;1.70;;;;;;;;;;5085224;28;20426;-71
2022/07/10 02:50:40;;;;;;;2.75;1.70;;;;;;;;;;5083637;28;20441;-71
2022/07/10 02:53:07;;;;;;;4.80;1.70;;;;;;;;;;5087260;28;20952;-71
2022/07/10 02:55:34;;;;;;;3.70;1.60;;;;;;;;;;5080121;28;20935;-71
2022/07/10 02:58:01;;;;;;;5.15;1.90;;;;;;;;;;5081554;28;20436;-71
2022/07/10 03:00:28;;;;;;;2.47;1.63;;;;;;;;;;5085113;28;20426;-72
2022/07/10 03:02:57;;;;;;;4.20;1.77;;;;;;;;;;5082291;28;20427;-72
2022/07/10 03:05:24;;;;;;;3.85;1.50;;;;;;;;;;5084599;28;20421;-71
2022/07/10 03:07:51;;;;;;;3.70;1.80;;;;;;;;;;5087745;28;21260;-72
2022/07/10 03:10:18;;;;;;;4.15;1.80;;;;;;;;;;5079025;28;20439;-70
2022/07/10 03:12:46;;;;;;;3.15;1.95;;;;;;;;;;5083120;28;20426;-70
2022/07/10 03:15:13;;;;;;;4.15;1.90;;;;;;;;;;5086152;28;20452;-70
2022/07/10 03:17:40;;;;;;;4.88;1.70;;;;;;;;;;5086254;28;20808;-71
2022/07/10 03:20:09;;;;;;;4.88;1.50;;;;;;;;;;5084206;28;20442;-71
2022/07/10 03:22:37;;;;;;;3.80;1.60;;;;;;;;;;5081104;28;20420;-71
2022/07/10 03:25:04;;;;;;;5.82;1.80;;;;;;;;;;5087675;28;20422;-71
2022/07/10 03:27:31;;;;;;;5.30;1.90;;;;;;;;;;5081960;28;20430;-71
2022/07/10 03:29:58;;;;;;;3.70;1.90;;;;;;;;;;5082226;28;20429;-71
2022/07/10 03:32:25;;;;;;;4.13;1.60;;;;;;;;;;5085563;28;20433;-71
2022/07/10 03:34:52;;;;;;;5.93;2.03;;;;;;;;;;5086998;28;20506;-71
2022/07/10 03:37:21;;;;;;;4.00;1.80;;;;;;;;;;5089278;28;20425;-71
2022/07/10 03:39:48;;;;;;;3.47;1.70;;;;;;;;;;5089480;28;20414;-70
2022/07/10 03:42:15;;;;;;;2.78;1.70;;;;;;;;;;5083693;28;20434;-71
2022/07/10 03:44:42;;;;;;;5.00;2.03;;;;;;;;;;5077108;28;20458;-71
2022/07/10 03:47:09;;;;;;;4.50;1.90;;;;;;;;;;5075281;28;20429;-70
2022/07/10 03:49:38;;;;;;;5.40;1.98;;;;;;;;;;5086950;28;20818;-71
2022/07/10 03:52:06;;;;;;;4.13;1.80;;;;;;;;;;5085736;28;20441;-71
2022/07/10 03:54:35;;;;;;;4.10;1.80;;;;;;;;;;5085823;28;20432;-71
2022/07/10 03:59:46;;;;;;;4.07;1.67;;;;;;;;;;5082094;28;20428;-71
2022/07/10 04:02:13;;;;;;;5.90;1.73;;;;;;;;;;5076868;28;20450;-71
2022/07/10 04:04:41;;;;;;;4.60;1.80;;;;;;;;;;5081843;28;20809;-71
2022/07/10 04:07:08;;;;;;;3.53;1.63;;;;;;;;;;5082866;28;20457;-70
2022/07/10 04:09:36;;;;;;;2.88;1.70;;;;;;;;;;5081799;28;20941;-70
2022/07/10 04:12:03;;;;;;;3.83;1.70;;;;;;;;;;5083848;28;20430;-72
2022/07/10 04:14:31;;;;;;;3.95;1.80;;;;;;;;;;5080569;28;21053;-72
2022/07/10 04:16:58;;;;;;;3.92;1.90;;;;;;;;;;5083112;28;20443;-73
2022/07/10 04:19:25;;;;;;;4.00;1.85;;;;;;;;;;5084433;28;20436;-71
2022/07/10 04:21:52;;;;;;;4.05;1.80;;;;;;;;;;5079363;28;20429;-71
2022/07/10 04:24:19;;;;;;;3.93;1.90;;;;;;;;;;5082493;28;20445;-71
2022/07/10 04:26:48;;;;;;;3.25;1.73;;;;;;;;;;5084391;28;20430;-71
2022/07/10 04:29:15;;;;;;;3.35;1.70;;;;;;;;;;5077987;28;20434;-71
2022/07/10 04:31:42;;;;;;;3.75;2.00;;;;;;;;;;5080554;28;22279;-70
2022/07/10 04:34:09;;;;;;;4.97;1.70;;;;;;;;;;5077894;28;20425;-70
2022/07/10 04:36:37;;;;;;;4.43;1.70;;;;;;;;;;5085733;28;20417;-69
2022/07/10 04:39:04;;;;;;;3.70;1.60;;;;;;;;;;5078410;28;20425;-70
2022/07/10 04:41:31;;;;;;;3.92;1.63;;;;;;;;;;5078956;28;20471;-70
2022/07/10 04:43:59;;;;;;;3.97;1.65;;;;;;;;;;5082640;28;20924;-70
2022/07/10 04:46:26;;;;;;;3.30;1.80;;;;;;;;;;5081667;28;20427;-72
2022/07/10 04:48:53;;;;;;;3.72;1.80;;;;;;;;;;5084531;28;20438;-72
2022/07/10 04:51:21;;;;;;;4.45;1.90;;;;;;;;;;5078950;28;20795;-72
2022/07/10 04:53:48;;;;;;;4.10;1.80;;;;;;;;;;5082417;28;20429;-71
2022/07/10 04:56:15;;;;;;;4.22;1.80;;;;;;;;;;5077779;28;21091;-71
2022/07/10 04:58:42;;;;;;;5.72;2.00;;;;;;;;;;5081938;28;20429;-72
2022/07/10 05:01:10;;;;;;;4.53;2.50;;;;;;;;;;5080216;28;20437;-70
2022/07/10 05:03:37;;;;;;;4.43;1.88;;;;;;;;;;5080944;28;20426;-71
2022/07/10 05:06:05;;;;;;;5.05;1.80;;;;;;;;;;5079066;28;21122;-75
2022/07/10 05:08:32;;;;;;;3.85;2.00;;;;;;;;;;5086867;28;20431;-76
2022/07/10 05:10:59;;;;;;;4.95;2.30;;;;;;;;;;5081180;28;20437;-76
2022/07/10 05:13:26;;;;;;;4.90;2.15;;;;;;;;;;5079060;28;20959;-74
2022/07/10 05:15:53;;;;;;;5.15;2.30;;;;;;;;;;5078468;28;20903;-74
2022/07/10 05:18:21;;;;;;;4.68;1.83;;;;;;;;;;5083682;28;20421;-76
2022/07/10 05:20:49;;;;;;;5.93;2.28;;;;;;;;;;5080810;28;20428;-74
2022/07/10 05:23:16;;;;;;;3.55;2.10;;;;;;;;;;5087037;28;20813;-74
2022/07/10 05:25:43;;;;;;;3.75;2.05;;;;;;;;;;5088395;28;20733;-75
2022/07/10 05:28:12;;;;;;;5.15;2.20;;;;;;;;;;5082431;28;20440;-75
2022/07/10 05:30:40;;;;;;;4.63;2.30;;;;;;;;;;5090116;28;20428;-75
2022/07/10 05:33:07;;;;;;;5.03;2.40;;;;;;;;;;5083924;28;20800;-75
2022/07/10 05:35:35;;;;;;;5.72;2.30;;;;;;;;;;5078573;28;20921;-75
2022/07/10 05:38:03;;;;;;;4.30;2.45;;;;;;;;;;5085441;28;20433;-75
2022/07/10 05:40:30;;;;;;;2.90;2.00;;;;;;;;;;5080789;28;20433;-75
2022/07/10 05:42:57;;;;;;;4.25;2.40;;;;;;;;;;5084296;28;20520;-75
2022/07/10 05:45:24;;;;;;;4.70;2.20;;;;;;;;;;5080995;28;20426;-75
2022/07/10 05:47:51;;;;;;;4.15;2.20;;;;;;;;;;5079574;28;20903;-75
2022/07/10 05:50:18;;;;;;;5.60;2.00;;;;;;;;;;5079324;28;20432;-75
2022/07/10 05:52:47;;;;;;;3.90;1.90;;;;;;;;;;5078256;28;20436;-75
2022/07/10 05:55:15;;;;;;;4.13;1.83;;;;;;;;;;5085112;28;20429;-76
2022/07/10 05:57:42;;;;;;;3.67;2.00;;;;;;;;;;5085522;28;20418;-75
2022/07/10 06:00:10;;;;;;;4.10;1.95;;;;;;;;;;5085442;28;20512;-77
2022/07/10 06:02:37;;;;;;;4.80;2.20;;;;;;;;;;5089599;28;20580;-76
2022/07/10 06:05:05;;;;;;;4.20;2.10;;;;;;;;;;5078373;28;20434;-75
2022/07/10 06:07:32;;;;;;;4.32;2.00;;;;;;;;;;5079262;28;20453;-75
2022/07/10 06:10:01;;;;;;;4.85;1.80;;;;;;;;;;5079196;28;20417;-74
2022/07/10 06:12:28;;;;;;;4.22;1.70;;;;;;;;;;5088881;28;20437;-75
2022/07/10 06:14:55;;;;;;;4.00;1.70;;;;;;;;;;5094990;28;20426;-75
2022/07/10 06:17:22;;;;;;;3.63;1.70;;;;;;;;;;5087356;28;20852;-75
2022/07/10 06:19:49;;;;;;;3.20;1.60;;;;;;;;;;5075528;28;20446;-75
2022/07/10 06:22:32;;;;;;;4.63;1.80;;;;;;;;;;5084813;28;20466;-76
2022/07/10 06:25:01;;;;;;;3.90;1.92;;;;;;;;;;5090323;28;20430;-71
2022/07/10 06:27:28;;;;;;;2.95;2.00;;;;;;;;;;5093650;28;20437;-70
2022/07/10 06:29:55;;;;;;;3.83;1.83;;;;;;;;;;5086981;28;20413;-71
2022/07/10 06:32:24;;;;;;;4.97;2.00;;;;;;;;;;5085841;28;20460;-72
2022/07/10 06:34:51;;;;;;;4.78;2.08;;;;;;;;;;5086794;28;20511;-74
2022/07/10 06:37:18;;;;;;;3.17;1.90;;;;;;;;;;5085914;28;20475;-71
2022/07/10 06:39:46;;;;;;;5.60;2.30;;;;;;;;;;5087707;28;20434;-71
2022/07/10 06:42:15;;;;;;;5.90;3.25;;;;;;;;;;5090382;28;20417;-72
2022/07/10 06:44:42;;;;;;;5.10;2.15;;;;;;;;;;5086255;28;20428;-71
2022/07/10 06:49:55;;;;;;;2.93;1.90;;;;;;;;;;5086508;28;21102;-73
2022/07/10 06:52:22;;;;;;;3.65;1.95;;;;;;;;;;5096988;22;20439;-72
2022/07/10 06:54:49;;;;;;;3.63;1.70;;;;;;;;;;5022297;28;20569;-73
2022/07/10 06:57:19;;;;;;;2.90;1.83;;;;;;;;;;5021378;28;20524;-74
2022/07/10 06:59:46;;;;;;;3.80;1.65;;;;;;;;;;5021317;28;20434;-73
2022/07/10 07:02:13;;;;;;;3.28;1.80;;;;;;;;;;5026573;28;20730;-74
2022/07/10 07:04:40;;;;;;;3.83;1.60;;;;;;;;;;5032670;28;20798;-74
2022/07/10 07:07:08;;;;;;;4.53;1.63;;;;;;;;;;5023326;28;20449;-76
2022/07/10 07:09:35;;;;;;;4.43;1.80;;;;;;;;;;5021073;28;20842;-73
2022/07/10 07:12:02;;;;;;;3.17;1.80;;;;;;;;;;5021361;28;20434;-68
2022/07/10 07:14:30;;;;;;;5.38;2.38;;;;;;;;;;5014380;28;20436;-65
2022/07/10 07:17:00;;;;;;;5.00;2.20;;;;;;;;;;5023596;28;20490;-73
2022/07/10 07:24:53;;;;;;;6.03;2.37;;;;;;;;;;5017423;28;20970;-73
2022/07/10 07:27:21;;;;;;;3.80;2.20;;;;;;;;;;5022204;28;20423;-72
2022/07/10 07:29:49;;;;;;;3.08;2.10;;;;;;;;;;5016811;28;20653;-72
2022/07/10 07:32:16;;;;;;;2.92;2.20;;;;;;;;;;5031514;28;20433;-73
2022/07/10 07:34:43;;;;;;;3.80;2.00;;;;;;;;;;5030730;28;20884;-73
2022/07/10 07:37:10;;;;;;;4.57;1.90;;;;;;;;;;5023680;28;20487;-73
2022/07/10 07:39:38;;;;;;;3.30;1.80;;;;;;;;;;5032169;28;20520;-73
2022/07/10 07:42:05;;;;;;;3.08;1.73;;;;;;;;;;5026668;28;20873;-73
2022/07/10 07:44:32;;;;;;;3.20;2.30;;;;;;;;;;5036005;28;20431;-73
2022/07/10 07:47:01;;;;;;;3.53;1.90;;;;;;;;;;5028272;28;20431;-73
2022/07/10 07:49:28;;;;;;;3.42;2.10;;;;;;;;;;5025602;28;20437;-72
2022/07/10 07:51:55;;;;;;;4.50;2.10;;;;;;;;;;5028018;28;20431;-71
2022/07/10 07:54:22;;;;;;;4.03;2.30;;;;;;;;;;5027355;28;20443;-71
2022/07/10 07:56:49;;;;;;;2.63;2.20;;;;;;;;;;5045491;28;20410;-71
2022/07/10 07:59:16;;;;;;;4.60;2.40;;;;;;;;;;5037755;28;20537;-70
2022/07/10 08:01:43;;;;;;;3.87;2.20;;;;;;;;;;5034123;28;20503;-73
2022/07/10 08:04:13;;;;;;;3.10;2.13;;;;;;;;;;5042959;28;20868;-73
2022/07/10 08:06:40;;;;;;;4.00;2.20;;;;;;;;;;5043208;28;20447;-72
2022/07/10 08:09:07;;;;;;;3.88;2.50;;;;;;;;;;5036196;28;20425;-71
2022/07/10 08:11:34;;;;;;;5.45;2.40;;;;;;;;;;5029623;28;20434;-73
2022/07/10 08:14:01;;;;;;;4.00;2.22;;;;;;;;;;5044786;28;20424;-73
2022/07/10 08:16:28;;;;;;;3.00;2.08;;;;;;;;;;5040355;28;20438;-73
2022/07/10 08:18:56;;;;;;;4.75;2.20;;;;;;;;;;5036585;28;20429;-73
2022/07/10 08:21:24;;;;;;;3.58;1.77;;;;;;;;;;5030734;28;20434;-73
2022/07/10 08:23:53;;;;;;;3.97;1.98;;;;;;;;;;5041126;28;20421;-73
2022/07/10 08:26:20;;;;;;;5.25;2.40;;;;;;;;;;5048999;28;20553;-73
2022/07/10 08:28:47;;;;;;;3.53;2.10;;;;;;;;;;5033517;28;20416;-72
2022/07/10 08:31:14;;;;;;;4.45;2.30;;;;;;;;;;5031424;28;20441;-72
2022/07/10 08:33:41;;;;;;;5.30;2.70;;;;;;;;;;5033578;28;20538;-72
2022/07/10 08:36:09;;;;;;;4.43;2.60;;;;;;;;;;5034163;28;20529;-72
2022/07/10 08:38:37;;;;;;;3.43;2.53;;;;;;;;;;5037814;28;20472;-72
2022/07/10 08:41:06;;;;;;;4.63;2.17;;;;;;;;;;5049818;28;20416;-72
2022/07/10 08:43:34;;;;;;;4.15;2.50;;;;;;;;;;5043613;28;20911;-72
2022/07/10 08:46:01;;;;;;;4.10;2.40;;;;;;;;;;5024736;28;20427;-72
2022/07/10 08:48:28;;;;;;;4.93;2.60;;;;;;;;;;5032282;28;20432;-72
2022/07/10 08:50:57;;;;;;;4.93;3.55;;;;;;;;;;5019097;28;20437;-72
2022/07/10 08:53:25;;;;;;;5.20;3.10;;;;;;;;;;5023730;28;20420;-72
2022/07/10 08:55:54;;;;;;;4.60;2.58;;;;;;;;;;5026585;28;20421;-72
2022/07/10 08:58:21;;;;;;;3.92;2.50;;;;;;;;;;5021926;28;20534;-73
2022/07/10 09:00:49;;;;;;;4.70;3.50;;;;;;;;;;5019133;28;20494;-72
2022/07/10 09:03:16;;;;;;;3.78;2.65;;;;;;;;;;5026480;28;20423;-72
2022/07/10 09:05:43;;;;;;;4.50;2.70;;;;;;;;;;5039237;28;20508;-72
2022/07/10 09:08:22;;;;;;;4.50;2.80;;;;;;;;;;5037053;28;20826;-73
2022/07/10 09:10:50;;;;;;;5.03;3.50;;;;;;;;;;5039100;28;20500;-72
2022/07/10 09:13:19;;;;;;;4.32;2.70;;;;;;;;;;5017217;28;20474;-72
2022/07/10 09:15:49;;;;;;;4.90;3.30;;;;;;;;;;5025978;28;20520;-72
2022/07/10 09:18:20;;;;;;;5.18;3.10;;;;;;;;;;5036285;28;20592;-72
2022/07/10 09:20:47;;;;;;;4.83;3.20;;;;;;;;;;5028461;28;20487;-72
2022/07/10 09:23:17;;;;;;;3.58;2.60;;;;;;;;;;5026372;28;20447;-72
2022/07/10 09:25:45;;;;;;;4.00;2.40;;;;;;;;;;5023057;28;21014;-72
2022/07/10 09:28:12;;;;;;;4.13;2.75;;;;;;;;;;5020963;28;20525;-72
2022/07/10 09:30:41;;;;;;;3.83;2.70;;;;;;;;;;5027917;28;20444;-72
2022/07/10 09:33:27;;;;;;;3.40;2.43;;;;;;;;;;5035924;28;20418;-72
2022/07/10 09:36:08;;;;;;;4.13;2.10;;;;;;;;;;5024243;28;20453;-72
2022/07/10 09:38:49;;;;;;;2.45;2.15;;;;;;;;;;5024848;28;20446;-72
2022/07/10 09:41:18;;;;;;;3.50;2.60;;;;;;;;;;5024641;28;20511;-72
2022/07/10 09:43:45;;;;;;;3.30;2.13;;;;;;;;;;5040147;28;20421;-72
2022/07/10 09:46:14;;;;;;;5.63;2.27;;;;;;;;;;5034318;28;21094;-72
2022/07/10 09:48:41;;;;;;;3.20;2.20;;;;;;;;;;5042277;28;20468;-72
2022/07/10 09:51:10;;;;;;;3.10;1.50;;;;;;;;;;5015203;28;20502;-72
2022/07/10 09:53:39;;;;;;;2.92;1.75;;;;;;;;;;5021923;28;20431;-72
2022/07/10 09:56:08;;;;;;;2.05;1.40;;;;;;;;;;5028771;28;20417;-72
2022/07/10 09:58:36;;;;;;;2.72;1.30;;;;;;;;;;5032295;28;20419;-72
2022/07/10 10:01:03;;;;;;;3.10;1.67;;;;;;;;;;5024864;28;20531;-72
2022/07/10 10:03:34;;;;;;;2.20;1.48;;;;;;;;;;5040329;28;20436;-72
2022/07/10 10:06:03;;;;;;;2.90;1.50;;;;;;;;;;5042120;28;20443;-72
2022/07/10 10:08:32;;;;;;;3.42;2.10;;;;;;;;;;5028084;28;20913;-72
2022/07/10 10:11:01;;;;;;;2.70;1.95;;;;;;;;;;5033235;28;20674;-73
2022/07/10 10:13:30;;;;;;;2.35;1.60;;;;;;;;;;5029059;28;20437;-72
2022/07/10 10:15:57;;;;;;;2.80;1.90;;;;;;;;;;5031226;28;20529;-72
2022/07/10 10:18:25;;;;;;;3.63;2.38;;;;;;;;;;5039661;28;20417;-72
2022/07/10 10:20:53;;;;;;;3.70;2.40;;;;;;;;;;5045826;28;20420;-72
2022/07/10 10:23:21;;;;;;;3.55;2.13;;;;;;;;;;5027993;28;20996;-72
2022/07/10 10:25:48;;;;;;;2.60;1.95;;;;;;;;;;5031537;28;20866;-73
2022/07/10 10:28:17;;;;;;;2.42;1.90;;;;;;;;;;5026842;28;20441;-72
2022/07/10 10:30:45;;;;;;;3.70;1.90;;;;;;;;;;5032397;28;20441;-72
2022/07/10 10:33:31;;;;;;;2.83;1.53;;;;;;;;;;5028123;28;20427;-72
2022/07/10 10:35:59;;;;;;;2.72;1.40;;;;;;;;;;5045241;28;20521;-72
2022/07/10 10:38:47;;;;;;;3.35;1.77;;;;;;;;;;5038904;28;20585;-72
2022/07/10 10:41:27;;;;;;;2.10;1.50;;;;;;;;;;5032301;28;20416;-71
2022/07/10 10:44:09;;;;;;;3.95;1.60;;;;;;;;;;5045424;28;20417;-72
2022/07/10 10:46:37;;;;;;;2.88;1.77;;;;;;;;;;5030647;28;20421;-71
2022/07/10 10:49:06;;;;;;;3.28;1.60;;;;;;;;;;5024013;28;20518;-71
2022/07/10 10:51:48;;;;;;;2.88;1.27;;;;;;;;;;5022713;28;20447;-72
2022/07/10 10:54:16;;;;;;;3.70;1.70;;;;;;;;;;5016648;28;20441;-72
2022/07/10 10:56:43;;;;;;;4.30;1.75;;;;;;;;;;5035944;28;20895;-72
2022/07/10 10:59:11;;;;;;;4.10;1.63;;;;;;;;;;5030437;28;20449;-72
2022/07/10 11:01:39;;;;;;;3.45;1.60;;;;;;;;;;5027570;28;20430;-71
2022/07/10 11:04:17;;;;;;;3.22;1.70;;;;;;;;;;5026769;28;20446;-71
2022/07/10 11:06:46;;;;;;;2.50;1.40;;;;;;;;;;5026205;28;20442;-72
2022/07/10 11:09:27;;;;;;;4.85;1.95;;;;;;;;;;5029763;28;20958;-71
2022/07/10 11:12:05;;;;;;;2.20;1.55;;;;;;;;;;5032342;28;20935;-71
2022/07/10 11:14:32;;;;;;;2.92;1.80;;;;;;;;;;5020592;28;20774;-72
2022/07/10 11:17:00;;;;;;;1.90;1.50;;;;;;;;;;5022925;28;20503;-73
2022/07/10 11:19:28;;;;;;;4.43;1.77;;;;;;;;;;5037370;28;20518;-71
2022/07/10 11:22:14;;;;;;;1.70;1.50;;;;;;;;;;5032728;28;20438;-71
2022/07/10 11:24:44;;;;;;;2.50;1.70;;;;;;;;;;5023768;28;20445;-73
2022/07/10 11:27:28;;;;;;;2.42;1.60;;;;;;;;;;5023617;28;20455;-72
2022/07/10 11:29:58;;;;;;;2.85;1.40;;;;;;;;;;5025871;28;20449;-71
2022/07/10 11:32:25;;;;;;;3.75;1.67;;;;;;;;;;5029735;28;20473;-71
2022/07/10 11:34:53;;;;;;;2.83;1.70;;;;;;;;;;5030102;28;20509;-71
2022/07/10 11:37:20;;;;;;;2.27;1.17;;;;;;;;;;5045084;28;20417;-71
2022/07/10 11:39:48;;;;;;;1.67;1.10;;;;;;;;;;5044663;28;20501;-71
2022/07/10 11:42:15;;;;;;;2.43;1.40;;;;;;;;;;5024484;28;20592;-73
2022/07/10 11:44:43;;;;;;;3.30;1.30;;;;;;;;;;5028161;28;20449;-73
2022/07/10 11:47:11;;;;;;;1.70;1.00;;;;;;;;;;5032573;28;20460;-71
2022/07/10 11:49:45;;;;;;;2.97;1.50;;;;;;;;;;5034264;28;20423;-73
2022/07/10 11:52:12;;;;;;;2.50;1.60;;;;;;;;;;5016368;28;20431;-73
2022/07/10 11:54:42;;;;;;;1.83;1.30;;;;;;;;;;5022943;28;20438;-72
2022/07/10 11:57:11;;;;;;;2.10;1.30;;;;;;;;;;5025238;28;20438;-71
2022/07/10 11:59:38;;;;;;;1.70;1.10;;;;;;;;;;5027989;28;20925;-71
2022/07/10 12:02:06;;;;;;;2.10;1.20;;;;;;;;;;5024338;28;20879;-71
2022/07/10 12:04:33;;;;;;;2.03;1.50;;;;;;;;;;5029872;28;20518;-73
2022/07/10 12:07:01;;;;;;;3.30;1.80;;;;;;;;;;5037507;28;20586;-73
2022/07/10 12:09:28;;;;;;;2.92;1.45;;;;;;;;;;5034266;28;20535;-73
2022/07/10 12:12:02;;;;;;;1.60;1.40;;;;;;;;;;5029309;28;20913;-73
2022/07/10 12:14:30;;;;;;;1.65;1.40;;;;;;;;;;5034569;28;20438;-73
2022/07/10 12:16:58;;;;;;;2.28;1.30;;;;;;;;;;5027593;28;20865;-74
2022/07/10 12:19:27;;;;;;;2.47;1.38;;;;;;;;;;5037531;28;20447;-73
2022/07/10 12:21:55;;;;;;;2.23;1.40;;;;;;;;;;5038101;28;20506;-74
2022/07/10 12:24:23;;;;;;;2.80;2.50;;;;;;;;;;5029064;28;20490;-73
2022/07/10 12:26:52;;;;;;;2.45;1.50;;;;;;;;;;5024957;28;20454;-72
2022/07/10 12:29:22;;;;;;;2.20;1.90;;;;;;;;;;5019326;28;20443;-74
2022/07/10 12:31:52;;;;;;;2.60;1.60;;;;;;;;;;5029985;28;20544;-73
2022/07/10 12:34:19;;;;;;;1.90;1.40;;;;;;;;;;5025619;28;20431;-74
2022/07/10 12:36:47;;;;;;;1.95;1.42;;;;;;;;;;5029277;28;20832;-72
2022/07/10 12:39:15;;;;;;;3.15;1.70;;;;;;;;;;5035079;28;20467;-73
2022/07/10 12:41:56;;;;;;;1.95;1.38;;;;;;;;;;5027608;28;20449;-73
2022/07/10 12:44:31;;;;;;;1.38;1.20;;;;;;;;;;5026497;28;20469;-73
2022/07/10 12:47:02;;;;;;;1.30;1.08;;;;;;;;;;5033840;28;20438;-74
2022/07/10 12:49:30;;;;;;;1.50;1.27;;;;;;;;;;5028049;28;20441;-73
2022/07/10 12:51:57;;;;;;;1.63;0.90;;;;;;;;;;5027820;28;20522;-73
2022/07/10 12:54:37;;;;;;;2.40;1.30;;;;;;;;;;5028129;28;20510;-74
2022/07/10 12:57:05;;;;;;;1.30;1.05;;;;;;;;;;5024426;28;20426;-74
2022/07/10 12:59:34;;;;;;;1.57;1.40;;;;;;;;;;5033484;28;20461;-74
2022/07/10 13:04:31;;;;;;;2.83;1.33;;;;;;;;;;5020841;28;20521;-72
2022/07/10 13:07:13;;;;;;;2.97;1.60;;;;;;;;;;5017277;28;20440;-73
2022/07/10 13:09:41;;;;;;;2.30;1.42;;;;;;;;;;5009735;28;20429;-73
2022/07/10 13:12:08;;;;;;;3.30;1.70;;;;;;;;;;5008175;28;20443;-74
2022/07/10 13:14:35;;;;;;;3.40;1.67;;;;;;;;;;5006611;28;20924;-73
2022/07/10 13:17:02;;;;;;;2.05;1.85;;;;;;;;;;5009218;28;20427;-73
2022/07/10 13:19:29;;;;;;;2.40;1.60;;;;;;;;;;5005556;28;20436;-72
2022/07/10 13:21:58;;;;;;;3.10;1.70;;;;;;;;;;5009573;28;20431;-72
2022/07/10 13:24:26;;;;;;;2.38;1.45;;;;;;;;;;5008941;28;20961;-73
2022/07/10 13:26:55;;;;;;;1.95;1.60;;;;;;;;;;5008804;28;20439;-73
2022/07/10 13:29:22;;;;;;;4.47;2.27;;;;;;;;;;5007703;28;20444;-72
2022/07/10 13:31:50;;;;;;;2.72;2.10;;;;;;;;;;5008720;28;20425;-73
2022/07/10 13:34:17;;;;;;;2.88;2.35;;;;;;;;;;5008732;28;20421;-72
2022/07/10 13:36:44;;;;;;;2.72;1.85;;;;;;;;;;5007805;28;20413;-73
2022/07/10 13:39:12;;;;;;;3.05;2.10;;;;;;;;;;5009015;28;20429;-72
2022/07/10 13:41:39;;;;;;;2.50;1.80;;;;;;;;;;5008634;28;20425;-73
2022/07/10 13:44:06;;;;;;;2.50;1.80;;;;;;;;;;5013198;28;20439;-71
2022/07/10 13:46:33;;;;;;;2.85;1.90;;;;;;;;;;5020216;28;20436;-74
2022/07/10 13:49:01;;;;;;;2.20;1.60;;;;;;;;;;5018195;28;20466;-73
2022/07/10 13:51:28;;;;;;;3.15;1.73;;;;;;;;;;5010096;28;20947;-74
2022/07/10 13:53:55;;;;;;;3.25;1.80;;;;;;;;;;5008463;28;20888;-74
2022/07/10 13:56:25;;;;;;;4.22;2.00;;;;;;;;;;5007840;28;20932;-73
2022/07/10 13:58:52;;;;;;;3.60;1.73;;;;;;;;;;5007603;28;20889;-74
2022/07/10 14:01:19;;;;;;;4.00;1.70;;;;;;;;;;5006457;28;20436;-73
2022/07/10 14:03:47;;;;;;;2.70;2.00;;;;;;;;;;5008650;28;20451;-74
2022/07/10 14:06:14;;;;;;;2.40;1.92;;;;;;;;;;4989804;28;20505;-74
2022/07/10 14:08:41;;;;;;;3.00;2.00;;;;;;;;;;4996090;28;20432;-73
2022/07/10 14:11:08;;;;;;;3.67;1.92;;;;;;;;;;5006556;28;20443;-74
2022/07/10 14:13:37;;;;;;;3.30;2.00;;;;;;;;;;5007288;28;20424;-74
2022/07/10 14:16:04;;;;;;;2.73;1.60;;;;;;;;;;5008849;28;20435;-73
2022/07/10 14:18:39;;;;;;;4.55;2.20;;;;;;;;;;5008850;28;20413;-74
2022/07/10 14:21:08;;;;;;;2.97;1.90;;;;;;;;;;5007878;28;20865;-73
2022/07/10 14:23:35;;;;;;;3.05;2.20;;;;;;;;;;5003975;28;20824;-75
2022/07/10 14:26:03;;;;;;;4.35;1.80;;;;;;;;;;5007935;28;20443;-73
2022/07/10 14:28:31;;;;;;;4.40;1.80;;;;;;;;;;5007164;28;20966;-74
2022/07/10 14:31:03;;;;;;;3.83;1.80;;;;;;;;;;5007202;28;20436;-75
2022/07/10 14:33:30;;;;;;;3.30;1.70;;;;;;;;;;5008581;28;20908;-73
2022/07/10 14:35:57;;;;;;;2.33;1.58;;;;;;;;;;5007189;28;20827;-75
2022/07/10 14:38:24;;;;;;;3.00;1.75;;;;;;;;;;5007092;28;20428;-75
2022/07/10 14:40:52;;;;;;;3.40;1.95;;;;;;;;;;5008931;28;20555;-74
2022/07/10 14:43:20;;;;;;;3.90;3.47;;;;;;;;;;5008034;28;20589;-73
2022/07/10 14:45:47;;;;;;;3.13;2.83;;;;;;;;;;5007655;28;20420;-74
2022/07/10 14:48:15;;;;;;;2.88;2.00;;;;;;;;;;5010662;28;20518;-73
2022/07/10 14:50:43;;;;;;;2.33;1.85;;;;;;;;;;5008120;28;20445;-74
2022/07/10 14:53:11;;;;;;;2.42;1.80;;;;;;;;;;5011404;28;20420;-74
2022/07/10 14:55:38;;;;;;;3.17;1.88;;;;;;;;;;5010246;28;20441;-72
2022/07/10 14:58:05;;;;;;;4.35;1.80;;;;;;;;;;5012027;28;20904;-73
2022/07/10 15:00:33;;;;;;;2.47;2.03;;;;;;;;;;5011572;28;20464;-74
2022/07/10 15:03:00;;;;;;;3.00;1.73;;;;;;;;;;5011612;28;20424;-74
2022/07/10 15:05:29;;;;;;;4.13;2.25;;;;;;;;;;5010308;28;20788;-71